createdAt,value
2022-07-30T00:00:38.940Z,463.0000
2022-07-30T00:01:41.385Z,465.0000
2022-07-30T00:02:41.484Z,461.0000
2022-07-30T00:03:43.897Z,466.0000
2022-07-30T00:04:46.156Z,466.0000
2022-07-30T00:05:48.443Z,465.0000
2022-07-30T00:06:50.817Z,467.0000
2022-07-30T00:07:53.136Z,470.0000
2022-07-30T00:08:53.366Z,467.0000
2022-07-30T00:09:55.733Z,469.0000
2022-07-30T00:10:58.106Z,468.0000
2022-07-30T00:12:00.473Z,464.0000
2022-07-30T00:13:00.645Z,464.0000
2022-07-30T00:14:02.995Z,465.0000
2022-07-30T00:15:05.338Z,464.0000
2022-07-30T00:16:07.687Z,462.0000
2022-07-30T00:17:10.123Z,461.0000
2022-07-30T00:18:10.219Z,464.0000
2022-07-30T00:19:12.526Z,462.0000
2022-07-30T00:20:14.817Z,462.0000
2022-07-30T00:21:20.228Z,464.0000
2022-07-30T00:22:17.374Z,458.0000
2022-07-30T00:23:19.631Z,459.0000
2022-07-30T00:24:21.912Z,457.0000
2022-07-30T00:25:24.264Z,457.0000
2022-07-30T00:26:26.589Z,456.0000
2022-07-30T00:27:28.957Z,456.0000
2022-07-30T00:28:29.096Z,456.0000
2022-07-30T00:29:31.418Z,458.0000
2022-07-30T00:30:33.781Z,455.0000
2022-07-30T00:31:36.068Z,463.0000
2022-07-30T00:32:38.433Z,459.0000
2022-07-30T00:33:40.728Z,466.0000
2022-07-30T00:34:40.904Z,461.0000
2022-07-30T00:35:43.235Z,459.0000
2022-07-30T00:36:45.572Z,460.0000
2022-07-30T00:37:47.935Z,464.0000
2022-07-30T00:38:50.256Z,464.0000
2022-07-30T00:39:50.444Z,463.0000
2022-07-30T00:40:52.779Z,465.0000
2022-07-30T00:41:55.075Z,467.0000
2022-07-30T00:44:12.668Z,455.0000
2022-07-30T00:45:14.816Z,458.0000
2022-07-30T00:46:17.110Z,458.0000
2022-07-30T00:47:19.342Z,462.0000
2022-07-30T00:48:19.497Z,463.0000
2022-07-30T00:49:21.887Z,457.0000
2022-07-30T00:50:24.183Z,455.0000
2022-07-30T00:51:26.533Z,457.0000
2022-07-30T00:52:28.879Z,455.0000
2022-07-30T00:53:31.174Z,454.0000
2022-07-30T00:54:31.409Z,455.0000
2022-07-30T00:55:33.688Z,453.0000
2022-07-30T00:56:36.013Z,456.0000
2022-07-30T00:57:39.338Z,457.0000
2022-07-30T00:58:40.662Z,461.0000
2022-07-30T00:59:40.888Z,463.0000
2022-07-30T01:00:43.200Z,458.0000
2022-07-30T01:01:45.562Z,463.0000
2022-07-30T01:02:47.837Z,456.0000
2022-07-30T01:03:50.212Z,457.0000
2022-07-30T01:04:52.747Z,452.0000
2022-07-30T01:05:52.781Z,458.0000
2022-07-30T01:06:55.056Z,456.0000
2022-07-30T01:07:57.366Z,455.0000
2022-07-30T01:08:59.708Z,452.0000
2022-07-30T01:09:59.923Z,452.0000
2022-07-30T01:11:02.209Z,456.0000
2022-07-30T01:12:04.549Z,452.0000
2022-07-30T01:13:04.739Z,451.0000
2022-07-30T01:14:07.085Z,451.0000
2022-07-30T01:15:07.313Z,452.0000
2022-07-30T01:16:09.684Z,452.0000
2022-07-30T01:17:11.982Z,453.0000
2022-07-30T01:18:14.345Z,454.0000
2022-07-30T01:19:16.699Z,452.0000
2022-07-30T01:20:16.938Z,456.0000
2022-07-30T01:21:19.265Z,457.0000
2022-07-30T01:22:21.612Z,455.0000
2022-07-30T01:23:23.929Z,459.0000
2022-07-30T01:24:24.103Z,461.0000
2022-07-30T01:25:26.503Z,458.0000
2022-07-30T01:26:28.722Z,454.0000
2022-07-30T01:27:31.031Z,453.0000
2022-07-30T01:28:33.314Z,457.0000
2022-07-30T01:29:35.559Z,455.0000
2022-07-30T01:30:35.738Z,454.0000
2022-07-30T01:31:38.006Z,456.0000
2022-07-30T01:32:40.204Z,455.0000
2022-07-30T01:33:42.486Z,455.0000
2022-07-30T01:34:44.807Z,453.0000
2022-07-30T01:35:47.151Z,459.0000
2022-07-30T01:36:49.452Z,454.0000
2022-07-30T01:37:49.621Z,455.0000
2022-07-30T01:38:51.951Z,456.0000
2022-07-30T01:39:54.291Z,454.0000
2022-07-30T01:40:56.683Z,455.0000
2022-07-30T01:41:58.983Z,460.0000
2022-07-30T01:42:59.152Z,457.0000
2022-07-30T01:44:01.439Z,456.0000
2022-07-30T01:45:03.756Z,455.0000
2022-07-30T01:46:06.218Z,451.0000
2022-07-30T01:47:08.365Z,455.0000
2022-07-30T01:48:10.639Z,455.0000
2022-07-30T01:49:13.041Z,450.0000
2022-07-30T01:50:13.133Z,451.0000
2022-07-30T01:51:15.477Z,450.0000
2022-07-30T01:52:17.735Z,455.0000
2022-07-30T01:53:20.070Z,453.0000
2022-07-30T01:54:22.394Z,454.0000
2022-07-30T01:55:24.739Z,451.0000
2022-07-30T01:56:25.179Z,448.0000
2022-07-30T01:57:27.243Z,454.0000
2022-07-30T01:58:29.625Z,452.0000
2022-07-30T01:59:32.041Z,451.0000
2022-07-30T02:00:32.279Z,456.0000
2022-07-30T02:01:34.644Z,449.0000
2022-07-30T02:02:36.931Z,448.0000
2022-07-30T02:03:28.189Z,464.0000
2022-07-30T02:04:30.959Z,462.0000
2022-07-30T02:05:33.289Z,458.0000
2022-07-30T02:06:33.485Z,458.0000
2022-07-30T02:07:35.824Z,464.0000
2022-07-30T02:08:38.127Z,464.0000
2022-07-30T02:09:44.397Z,465.0000
2022-07-30T02:10:42.826Z,462.0000
2022-07-30T02:11:43.006Z,462.0000
2022-07-30T02:12:45.359Z,464.0000
2022-07-30T02:13:47.626Z,460.0000
2022-07-30T02:14:47.795Z,461.0000
2022-07-30T02:15:50.063Z,460.0000
2022-07-30T02:16:52.374Z,463.0000
2022-07-30T02:17:54.710Z,463.0000
2022-07-30T02:18:57.049Z,461.0000
2022-07-30T02:19:59.289Z,460.0000
2022-07-30T02:21:01.618Z,458.0000
2022-07-30T02:22:03.927Z,453.0000
2022-07-30T02:23:06.245Z,454.0000
2022-07-30T02:24:08.498Z,455.0000
2022-07-30T02:25:10.755Z,468.0000
2022-07-30T02:26:10.903Z,464.0000
2022-07-30T02:27:13.267Z,467.0000
2022-07-30T02:28:15.676Z,464.0000
2022-07-30T02:29:17.999Z,468.0000
2022-07-30T02:30:18.217Z,462.0000
2022-07-30T02:31:20.643Z,464.0000
2022-07-30T02:32:22.934Z,466.0000
2022-07-30T02:33:25.343Z,471.0000
2022-07-30T02:34:27.661Z,474.0000
2022-07-30T02:35:27.835Z,477.0000
2022-07-30T02:36:30.190Z,477.0000
2022-07-30T02:37:42.978Z,472.0000
2022-07-30T02:38:34.957Z,471.0000
2022-07-30T02:39:37.312Z,467.0000
2022-07-30T02:40:37.511Z,472.0000
2022-07-30T02:41:39.855Z,472.0000
2022-07-30T02:42:42.197Z,471.0000
2022-07-30T02:43:44.573Z,471.0000
2022-07-30T02:44:46.868Z,475.0000
2022-07-30T02:45:47.037Z,473.0000
2022-07-30T02:46:49.443Z,476.0000
2022-07-30T02:47:51.570Z,477.0000
2022-07-30T02:48:53.923Z,474.0000
2022-07-30T02:49:56.161Z,476.0000
2022-07-30T02:50:58.432Z,475.0000
2022-07-30T02:51:58.633Z,469.0000
2022-07-30T02:53:00.967Z,470.0000
2022-07-30T02:54:03.613Z,474.0000
2022-07-30T02:55:05.591Z,475.0000
2022-07-30T02:56:07.909Z,471.0000
2022-07-30T02:57:08.085Z,473.0000
2022-07-30T02:58:10.376Z,473.0000
2022-07-30T02:59:12.710Z,474.0000
2022-07-30T03:00:14.975Z,476.0000
2022-07-30T03:01:17.355Z,474.0000
2022-07-30T03:02:25.896Z,473.0000
2022-07-30T03:03:21.888Z,473.0000
2022-07-30T03:04:22.038Z,474.0000
2022-07-30T03:05:24.308Z,474.0000
2022-07-30T03:06:26.655Z,472.0000
2022-07-30T03:07:28.962Z,473.0000
2022-07-30T03:10:03.869Z,471.0000
2022-07-30T03:11:06.130Z,465.0000
2022-07-30T03:12:06.302Z,466.0000
2022-07-30T03:13:08.657Z,472.0000
2022-07-30T03:14:10.939Z,472.0000
2022-07-30T03:15:13.257Z,471.0000
2022-07-30T03:16:15.634Z,469.0000
2022-07-30T03:17:17.852Z,471.0000
2022-07-30T03:18:18.030Z,473.0000
2022-07-30T03:19:20.396Z,471.0000
2022-07-30T03:20:22.754Z,475.0000
2022-07-30T03:21:25.060Z,469.0000
2022-07-30T03:22:32.606Z,466.0000
2022-07-30T03:23:27.551Z,471.0000
2022-07-30T03:24:29.863Z,474.0000
2022-07-30T03:26:41.149Z,463.0000
2022-07-30T03:27:43.361Z,465.0000
2022-07-30T03:28:45.717Z,466.0000
2022-07-30T03:29:48.091Z,469.0000
2022-07-30T03:30:50.458Z,473.0000
2022-07-30T03:31:50.776Z,472.0000
2022-07-30T03:32:52.961Z,472.0000
2022-07-30T03:33:55.323Z,471.0000
2022-07-30T03:34:57.673Z,475.0000
2022-07-30T03:35:59.992Z,480.0000
2022-07-30T03:37:02.803Z,477.0000
2022-07-30T03:38:02.488Z,473.0000
2022-07-30T03:39:04.796Z,471.0000
2022-07-30T03:40:07.159Z,470.0000
2022-07-30T03:41:09.468Z,465.0000
2022-07-30T03:42:11.805Z,466.0000
2022-07-30T03:43:32.750Z,473.0000
2022-07-30T03:44:14.283Z,469.0000
2022-07-30T03:45:16.668Z,471.0000
2022-07-30T03:46:19.139Z,474.0000
2022-07-30T03:47:21.516Z,475.0000
2022-07-30T03:48:21.745Z,473.0000
2022-07-30T03:49:24.170Z,477.0000
2022-07-30T03:50:26.397Z,477.0000
2022-07-30T03:51:32.982Z,474.0000
2022-07-30T03:52:31.108Z,466.0000
2022-07-30T03:53:31.240Z,467.0000
2022-07-30T03:54:33.597Z,472.0000
2022-07-30T03:55:35.956Z,480.0000
2022-07-30T03:56:38.267Z,471.0000
2022-07-30T03:57:40.594Z,486.0000
2022-07-30T03:58:42.939Z,482.0000
2022-07-30T03:59:43.180Z,484.0000
2022-07-30T04:00:45.549Z,484.0000
2022-07-30T04:01:47.998Z,484.0000
2022-07-30T04:02:48.149Z,487.0000
2022-07-30T04:03:50.400Z,484.0000
2022-07-30T04:04:52.658Z,487.0000
2022-07-30T04:05:54.988Z,488.0000
2022-07-30T04:06:57.322Z,485.0000
2022-07-30T04:07:59.672Z,487.0000
2022-07-30T04:09:01.921Z,488.0000
2022-07-30T04:10:02.070Z,491.0000
2022-07-30T04:11:04.393Z,495.0000
2022-07-30T04:12:06.741Z,495.0000
2022-07-30T04:13:09.706Z,490.0000
2022-07-30T04:14:11.442Z,492.0000
2022-07-30T04:16:39.879Z,496.0000
2022-07-30T04:16:40.583Z,488.0000
2022-07-30T04:17:16.422Z,495.0000
2022-07-30T04:18:18.747Z,492.0000
2022-07-30T04:19:21.097Z,490.0000
2022-07-30T04:20:21.300Z,490.0000
2022-07-30T04:21:23.645Z,490.0000
2022-07-30T04:22:25.982Z,493.0000
2022-07-30T04:23:28.336Z,488.0000
2022-07-30T04:24:30.595Z,488.0000
2022-07-30T04:25:30.723Z,490.0000
2022-07-30T04:26:33.075Z,490.0000
2022-07-30T04:27:35.391Z,491.0000
2022-07-30T04:28:37.731Z,489.0000
2022-07-30T04:29:40.056Z,487.0000
2022-07-30T04:30:42.406Z,484.0000
2022-07-30T04:31:42.692Z,483.0000
2022-07-30T04:32:44.961Z,487.0000
2022-07-30T04:33:47.376Z,479.0000
2022-07-30T04:34:49.728Z,480.0000
2022-07-30T04:35:52.528Z,477.0000
2022-07-30T04:36:52.269Z,478.0000
2022-07-30T04:37:54.619Z,477.0000
2022-07-30T04:38:56.972Z,479.0000
2022-07-30T04:39:59.271Z,481.0000
2022-07-30T04:40:59.460Z,475.0000
2022-07-30T04:42:01.822Z,479.0000
2022-07-30T04:43:04.124Z,482.0000
2022-07-30T04:44:06.493Z,479.0000
2022-07-30T04:45:08.808Z,476.0000
2022-07-30T04:46:09.104Z,474.0000
2022-07-30T04:47:11.267Z,481.0000
2022-07-30T04:48:13.601Z,481.0000
2022-07-30T04:49:16.028Z,478.0000
2022-07-30T04:50:18.295Z,487.0000
2022-07-30T04:51:20.629Z,484.0000
2022-07-30T04:52:20.779Z,486.0000
2022-07-30T04:53:23.102Z,488.0000
2022-07-30T04:54:25.464Z,479.0000
2022-07-30T04:55:27.703Z,478.0000
2022-07-30T04:56:30.021Z,479.0000
2022-07-30T04:57:32.319Z,479.0000
2022-07-30T04:58:32.417Z,479.0000
2022-07-30T04:59:34.713Z,483.0000
2022-07-30T05:00:40.958Z,482.0000
2022-07-30T05:01:40.894Z,481.0000
2022-07-30T05:02:41.458Z,478.0000
2022-07-30T05:03:43.706Z,480.0000
2022-07-30T05:04:45.996Z,481.0000
2022-07-30T05:05:48.261Z,482.0000
2022-07-30T05:06:50.529Z,478.0000
2022-07-30T05:07:50.627Z,475.0000
2022-07-30T05:08:52.888Z,476.0000
2022-07-30T05:09:55.194Z,480.0000
2022-07-30T05:10:57.470Z,476.0000
2022-07-30T05:11:59.774Z,478.0000
2022-07-30T05:13:02.044Z,475.0000
2022-07-30T05:14:04.325Z,481.0000
2022-07-30T05:15:04.476Z,479.0000
2022-07-30T05:16:06.867Z,482.0000
2022-07-30T05:17:09.039Z,485.0000
2022-07-30T05:18:11.346Z,475.0000
2022-07-30T05:19:13.651Z,482.0000
2022-07-30T05:20:15.973Z,483.0000
2022-07-30T05:21:18.217Z,484.0000
2022-07-30T05:22:18.360Z,483.0000
2022-07-30T05:23:20.661Z,485.0000
2022-07-30T05:24:22.962Z,485.0000
2022-07-30T05:25:25.308Z,484.0000
2022-07-30T05:26:28.058Z,486.0000
2022-07-30T05:27:29.893Z,480.0000
2022-07-30T05:28:30.037Z,477.0000
2022-07-30T05:29:32.319Z,478.0000
2022-07-30T05:30:34.657Z,480.0000
2022-07-30T05:31:38.118Z,478.0000
2022-07-30T05:32:39.190Z,478.0000
2022-07-30T05:33:42.853Z,473.0000
2022-07-30T05:34:43.721Z,471.0000
2022-07-30T05:35:46.031Z,471.0000
2022-07-30T05:36:46.219Z,472.0000
2022-07-30T05:37:48.450Z,471.0000
2022-07-30T05:38:50.676Z,474.0000
2022-07-30T05:40:02.444Z,474.0000
2022-07-30T05:40:55.281Z,474.0000
2022-07-30T05:41:57.553Z,473.0000
2022-07-30T05:42:59.859Z,476.0000
2022-07-30T05:44:00.008Z,474.0000
2022-07-30T05:45:02.293Z,472.0000
2022-07-30T05:46:04.716Z,472.0000
2022-07-30T05:47:06.850Z,476.0000
2022-07-30T05:48:09.156Z,476.0000
2022-07-30T05:49:11.579Z,475.0000
2022-07-30T05:50:11.646Z,474.0000
2022-07-30T05:51:13.996Z,470.0000
2022-07-30T05:52:16.258Z,470.0000
2022-07-30T05:53:18.552Z,473.0000
2022-07-30T05:54:20.849Z,472.0000
2022-07-30T05:55:23.170Z,473.0000
2022-07-30T05:56:23.375Z,472.0000
2022-07-30T05:57:25.617Z,470.0000
2022-07-30T05:58:27.872Z,470.0000
2022-07-30T05:59:30.178Z,468.0000
2022-07-30T06:00:32.497Z,470.0000
2022-07-30T06:01:34.914Z,465.0000
2022-07-30T06:02:37.120Z,461.0000
2022-07-30T06:03:37.292Z,463.0000
2022-07-30T06:04:39.685Z,463.0000
2022-07-30T06:05:41.921Z,462.0000
2022-07-30T06:06:44.269Z,465.0000
2022-07-30T06:07:46.569Z,459.0000
2022-07-30T06:08:46.777Z,460.0000
2022-07-30T06:09:49.143Z,459.0000
2022-07-30T06:10:51.506Z,462.0000
2022-07-30T06:11:53.869Z,461.0000
2022-07-30T06:12:56.182Z,464.0000
2022-07-30T06:13:56.385Z,462.0000
2022-07-30T06:14:58.739Z,464.0000
2022-07-30T06:16:01.151Z,464.0000
2022-07-30T06:17:03.733Z,464.0000
2022-07-30T06:18:05.750Z,462.0000
2022-07-30T06:19:08.074Z,461.0000
2022-07-30T06:20:08.281Z,462.0000
2022-07-30T06:21:10.598Z,464.0000
2022-07-30T06:22:12.908Z,464.0000
2022-07-30T06:23:15.237Z,466.0000
2022-07-30T06:24:15.460Z,465.0000
2022-07-30T06:25:18.547Z,467.0000
2022-07-30T06:26:20.143Z,465.0000
2022-07-30T06:27:22.617Z,456.0000
2022-07-30T06:28:37.624Z,455.0000
2022-07-30T06:29:25.077Z,453.0000
2022-07-30T06:30:31.460Z,459.0000
2022-07-30T06:31:29.749Z,457.0000
2022-07-30T06:32:32.116Z,456.0000
2022-07-30T06:33:32.281Z,456.0000
2022-07-30T06:34:34.575Z,458.0000
2022-07-30T06:35:36.915Z,453.0000
2022-07-30T06:36:39.249Z,454.0000
2022-07-30T06:38:05.611Z,451.0000
2022-07-30T06:38:43.869Z,453.0000
2022-07-30T06:39:57.418Z,455.0000
2022-07-30T06:40:46.336Z,453.0000
2022-07-30T06:41:48.616Z,456.0000
2022-07-30T06:42:50.879Z,457.0000
2022-07-30T06:43:53.128Z,455.0000
2022-07-30T06:44:55.397Z,458.0000
2022-07-30T06:45:57.746Z,462.0000
2022-07-30T06:47:05.227Z,460.0000
2022-07-30T06:48:00.167Z,456.0000
2022-07-30T06:49:02.470Z,461.0000
2022-07-30T06:50:04.627Z,460.0000
2022-07-30T06:51:06.866Z,458.0000
2022-07-30T06:52:09.101Z,456.0000
2022-07-30T06:53:11.381Z,454.0000
2022-07-30T06:54:13.633Z,457.0000
2022-07-30T06:55:15.935Z,462.0000
2022-07-30T06:56:16.098Z,464.0000
2022-07-30T06:57:18.455Z,465.0000
2022-07-30T06:58:25.503Z,465.0000
2022-07-30T06:59:23.165Z,469.0000
2022-07-30T07:00:23.384Z,467.0000
2022-07-30T07:01:25.800Z,466.0000
2022-07-30T07:02:28.040Z,468.0000
2022-07-30T07:03:39.913Z,465.0000
2022-07-30T07:04:32.865Z,463.0000
2022-07-30T07:05:32.952Z,466.0000
2022-07-30T07:06:35.306Z,464.0000
2022-07-30T07:07:42.484Z,464.0000
2022-07-30T07:08:40.033Z,465.0000
2022-07-30T07:09:44.847Z,466.0000
2022-07-30T07:10:43.038Z,467.0000
2022-07-30T07:11:44.910Z,468.0000
2022-07-30T07:12:47.189Z,468.0000
2022-07-30T07:13:49.516Z,466.0000
2022-07-30T07:14:51.774Z,469.0000
2022-07-30T07:15:54.068Z,468.0000
2022-07-30T07:16:56.400Z,471.0000
2022-07-30T07:17:56.488Z,470.0000
2022-07-30T07:18:58.772Z,466.0000
2022-07-30T07:20:02.515Z,464.0000
2022-07-30T07:21:03.422Z,465.0000
2022-07-30T07:22:05.755Z,467.0000
2022-07-30T07:23:09.145Z,461.0000
2022-07-30T07:24:08.268Z,459.0000
2022-07-30T07:25:10.564Z,459.0000
2022-07-30T07:26:12.834Z,460.0000
2022-07-30T07:27:15.671Z,456.0000
2022-07-30T07:28:17.398Z,453.0000
2022-07-30T07:29:19.720Z,450.0000
2022-07-30T07:30:22.051Z,453.0000
2022-07-30T07:32:06.776Z,455.0000
2022-07-30T07:32:24.545Z,453.0000
2022-07-30T07:33:26.869Z,455.0000
2022-07-30T07:34:27.061Z,453.0000
2022-07-30T07:35:29.355Z,454.0000
2022-07-30T07:36:31.693Z,458.0000
2022-07-30T07:37:33.989Z,453.0000
2022-07-30T07:38:36.305Z,454.0000
2022-07-30T07:39:41.972Z,455.0000
2022-07-30T07:40:38.774Z,454.0000
2022-07-30T07:41:48.792Z,453.0000
2022-07-30T07:42:43.443Z,457.0000
2022-07-30T07:43:45.753Z,454.0000
2022-07-30T07:44:48.108Z,453.0000
2022-07-30T07:45:48.412Z,449.0000
2022-07-30T07:46:50.593Z,457.0000
2022-07-30T07:47:53.220Z,457.0000
2022-07-30T07:48:55.266Z,454.0000
2022-07-30T07:49:57.550Z,454.0000
2022-07-30T07:51:00.294Z,454.0000
2022-07-30T07:51:59.999Z,452.0000
2022-07-30T07:53:02.330Z,448.0000
2022-07-30T07:54:20.595Z,451.0000
2022-07-30T07:55:07.001Z,448.0000
2022-07-30T07:56:07.143Z,445.0000
2022-07-30T07:57:10.396Z,448.0000
2022-07-30T07:58:11.739Z,449.0000
2022-07-30T07:59:14.075Z,446.0000
2022-07-30T08:00:16.447Z,445.0000
2022-07-30T08:01:18.752Z,447.0000
2022-07-30T08:02:21.079Z,441.0000
2022-07-30T08:03:21.188Z,443.0000
2022-07-30T08:04:23.454Z,443.0000
2022-07-30T08:05:25.777Z,447.0000
2022-07-30T08:06:28.044Z,447.0000
2022-07-30T08:07:30.343Z,449.0000
2022-07-30T08:08:32.675Z,450.0000
2022-07-30T08:09:42.648Z,453.0000
2022-07-30T08:10:35.106Z,449.0000
2022-07-30T08:11:37.287Z,450.0000
2022-07-30T08:12:39.511Z,449.0000
2022-07-30T08:13:49.038Z,430.0000
2022-07-30T08:14:41.918Z,441.0000
2022-07-30T08:15:44.235Z,443.0000
2022-07-30T08:16:46.567Z,445.0000
2022-07-30T08:17:48.798Z,444.0000
2022-07-30T08:18:51.046Z,445.0000
2022-07-30T08:19:53.343Z,447.0000
2022-07-30T08:20:53.495Z,447.0000
2022-07-30T08:21:55.759Z,444.0000
2022-07-30T08:22:58.036Z,444.0000
2022-07-30T08:24:00.323Z,446.0000
2022-07-30T08:25:03.798Z,445.0000
2022-07-30T08:26:04.911Z,451.0000
2022-07-30T08:27:05.312Z,449.0000
2022-07-30T08:28:07.270Z,452.0000
2022-07-30T08:29:12.998Z,452.0000
2022-07-30T08:30:11.820Z,452.0000
2022-07-30T08:31:14.102Z,451.0000
2022-07-30T08:32:16.349Z,452.0000
2022-07-30T08:33:18.613Z,451.0000
2022-07-30T08:34:20.880Z,454.0000
2022-07-30T08:35:23.143Z,457.0000
2022-07-30T08:36:26.015Z,457.0000
2022-07-30T08:37:25.517Z,455.0000
2022-07-30T08:38:27.771Z,458.0000
2022-07-30T08:39:30.010Z,458.0000
2022-07-30T08:40:32.250Z,461.0000
2022-07-30T08:41:34.516Z,462.0000
2022-07-30T08:43:28.348Z,446.0000
2022-07-30T08:44:30.458Z,447.0000
2022-07-30T08:45:34.508Z,449.0000
2022-07-30T08:46:34.929Z,450.0000
2022-07-30T08:47:37.223Z,450.0000
2022-07-30T08:48:39.513Z,450.0000
2022-07-30T08:49:41.768Z,449.0000
2022-07-30T08:50:44.070Z,449.0000
2022-07-30T08:51:44.195Z,449.0000
2022-07-30T08:52:46.486Z,451.0000
2022-07-30T08:53:48.762Z,452.0000
2022-07-30T08:54:51.060Z,450.0000
2022-07-30T08:55:58.229Z,454.0000
2022-07-30T08:56:55.481Z,453.0000
2022-07-30T08:57:57.776Z,454.0000
2022-07-30T08:59:00.014Z,453.0000
2022-07-30T09:00:01.792Z,451.0000
2022-07-30T09:01:02.320Z,454.0000
2022-07-30T09:02:06.827Z,454.0000
2022-07-30T09:03:06.860Z,453.0000
2022-07-30T09:04:09.033Z,451.0000
2022-07-30T09:05:11.214Z,450.0000
2022-07-30T09:06:13.427Z,452.0000
2022-07-30T09:07:15.645Z,449.0000
2022-07-30T09:08:18.750Z,448.0000
2022-07-30T09:09:20.197Z,452.0000
2022-07-30T09:10:22.472Z,451.0000
2022-07-30T09:11:22.561Z,450.0000
2022-07-30T09:12:24.813Z,448.0000
2022-07-30T09:13:27.066Z,451.0000
2022-07-30T09:14:30.744Z,446.0000
2022-07-30T09:15:29.382Z,451.0000
2022-07-30T09:16:31.581Z,491.0000
2022-07-30T09:17:33.812Z,487.0000
2022-07-30T09:18:36.109Z,479.0000
2022-07-30T09:19:36.208Z,479.0000
2022-07-30T09:20:38.484Z,479.0000
2022-07-30T09:21:40.781Z,467.0000
2022-07-30T09:22:43.113Z,473.0000
2022-07-30T09:23:48.300Z,469.0000
2022-07-30T09:24:47.779Z,463.0000
2022-07-30T09:25:48.219Z,463.0000
2022-07-30T09:26:50.307Z,465.0000
2022-07-30T09:27:52.654Z,453.0000
2022-07-30T09:28:54.970Z,495.0000
2022-07-30T09:29:57.271Z,473.0000
2022-07-30T09:30:59.588Z,465.0000
2022-07-30T09:32:00.011Z,466.0000
2022-07-30T09:33:02.069Z,462.0000
2022-07-30T09:34:04.422Z,462.0000
2022-07-30T09:35:06.706Z,453.0000
2022-07-30T09:36:09.040Z,453.0000
2022-07-30T09:37:12.756Z,450.0000
2022-07-30T09:38:11.528Z,456.0000
2022-07-30T09:39:13.840Z,460.0000
2022-07-30T09:40:16.207Z,454.0000
2022-07-30T09:41:37.818Z,446.0000
2022-07-30T09:42:20.791Z,450.0000
2022-07-30T09:43:24.525Z,443.0000
2022-07-30T09:44:23.332Z,446.0000
2022-07-30T09:45:25.599Z,447.0000
2022-07-30T09:46:27.857Z,446.0000
2022-07-30T09:47:30.060Z,448.0000
2022-07-30T09:48:32.267Z,449.0000
2022-07-30T09:49:34.529Z,454.0000
2022-07-30T09:50:36.760Z,449.0000
2022-07-30T09:51:54.364Z,450.0000
2022-07-30T09:52:39.127Z,446.0000
2022-07-30T09:53:41.384Z,449.0000
2022-07-30T09:54:43.701Z,444.0000
2022-07-30T09:55:45.946Z,441.0000
2022-07-30T09:56:54.078Z,442.0000
2022-07-30T09:57:53.102Z,445.0000
2022-07-30T09:58:52.799Z,447.0000
2022-07-30T09:59:55.075Z,451.0000
2022-07-30T10:02:00.975Z,439.0000
2022-07-30T10:02:59.740Z,440.0000
2022-07-30T10:04:02.035Z,440.0000
2022-07-30T10:05:04.370Z,439.0000
2022-07-30T10:06:06.648Z,441.0000
2022-07-30T10:07:08.966Z,442.0000
2022-07-30T10:08:09.312Z,443.0000
2022-07-30T10:09:13.994Z,440.0000
2022-07-30T10:10:13.779Z,444.0000
2022-07-30T10:11:16.021Z,442.0000
2022-07-30T10:12:18.309Z,442.0000
2022-07-30T10:13:21.095Z,446.0000
2022-07-30T10:14:30.685Z,445.0000
2022-07-30T10:15:23.066Z,442.0000
2022-07-30T10:16:25.333Z,445.0000
2022-07-30T10:17:27.621Z,448.0000
2022-07-30T10:18:29.937Z,442.0000
2022-07-30T10:19:39.877Z,436.0000
2022-07-30T10:20:34.958Z,435.0000
2022-07-30T10:21:35.942Z,440.0000
2022-07-30T10:22:37.753Z,436.0000
2022-07-30T10:23:44.123Z,440.0000
2022-07-30T10:24:39.503Z,444.0000
2022-07-30T10:25:49.642Z,440.0000
2022-07-30T10:26:44.108Z,448.0000
2022-07-30T10:27:46.403Z,451.0000
2022-07-30T10:28:48.670Z,452.0000
2022-07-30T10:29:50.970Z,448.0000
2022-07-30T10:30:51.225Z,452.0000
2022-07-30T10:31:54.444Z,452.0000
2022-07-30T10:32:55.681Z,453.0000
2022-07-30T10:33:57.973Z,451.0000
2022-07-30T10:35:00.253Z,450.0000
2022-07-30T10:36:02.986Z,450.0000
2022-07-30T10:37:06.824Z,452.0000
2022-07-30T10:38:07.026Z,456.0000
2022-07-30T10:39:07.121Z,454.0000
2022-07-30T10:40:09.369Z,452.0000
2022-07-30T10:41:11.757Z,456.0000
2022-07-30T10:42:13.816Z,456.0000
2022-07-30T10:43:16.148Z,458.0000
2022-07-30T10:44:19.565Z,460.0000
2022-07-30T10:45:20.548Z,455.0000
2022-07-30T10:46:23.031Z,453.0000
2022-07-30T10:47:27.386Z,454.0000
2022-07-30T10:48:25.273Z,453.0000
2022-07-30T10:49:27.530Z,456.0000
2022-07-30T10:50:29.811Z,456.0000
2022-07-30T10:51:34.670Z,450.0000
2022-07-30T10:52:34.334Z,450.0000
2022-07-30T10:53:34.451Z,452.0000
2022-07-30T10:54:39.566Z,449.0000
2022-07-30T10:55:39.493Z,459.0000
2022-07-30T10:56:41.398Z,456.0000
2022-07-30T10:57:43.620Z,454.0000
2022-07-30T10:58:47.431Z,451.0000
2022-07-30T11:01:18.506Z,441.0000
2022-07-30T11:02:10.074Z,438.0000
2022-07-30T11:03:15.014Z,434.0000
2022-07-30T11:04:14.301Z,432.0000
2022-07-30T11:05:16.549Z,431.0000
2022-07-30T11:06:24.478Z,431.0000
2022-07-30T11:07:18.938Z,434.0000
2022-07-30T11:08:21.158Z,435.0000
2022-07-30T11:09:23.404Z,435.0000
2022-07-30T11:10:25.654Z,437.0000
2022-07-30T11:11:59.438Z,432.0000
2022-07-30T11:12:30.351Z,437.0000
2022-07-30T11:13:36.176Z,434.0000
2022-07-30T11:14:32.607Z,438.0000
2022-07-30T11:15:34.911Z,441.0000
2022-07-30T11:16:37.321Z,436.0000
2022-07-30T11:17:39.491Z,439.0000
2022-07-30T11:18:41.744Z,436.0000
2022-07-30T11:19:53.251Z,441.0000
2022-07-30T11:20:48.836Z,440.0000
2022-07-30T11:21:46.468Z,435.0000
2022-07-30T11:22:51.123Z,435.0000
2022-07-30T11:23:54.716Z,430.0000
2022-07-30T11:24:53.215Z,431.0000
2022-07-30T11:25:55.455Z,435.0000
2022-07-30T11:26:57.684Z,433.0000
2022-07-30T11:27:59.917Z,435.0000
2022-07-30T11:29:02.145Z,434.0000
2022-07-30T11:30:04.397Z,436.0000
2022-07-30T11:31:10.192Z,433.0000
2022-07-30T11:32:07.042Z,431.0000
2022-07-30T11:33:09.012Z,431.0000
2022-07-30T11:34:11.229Z,431.0000
2022-07-30T11:35:13.505Z,435.0000
2022-07-30T11:36:15.741Z,436.0000
2022-07-30T11:37:22.311Z,436.0000
2022-07-30T11:38:22.396Z,441.0000
2022-07-30T11:39:22.523Z,441.0000
2022-07-30T11:40:26.281Z,453.0000
2022-07-30T11:41:24.846Z,434.0000
2022-07-30T11:42:27.104Z,431.0000
2022-07-30T11:43:34.739Z,441.0000
2022-07-30T11:44:31.637Z,435.0000
2022-07-30T11:45:33.842Z,437.0000
2022-07-30T11:46:36.020Z,436.0000
2022-07-30T11:47:38.245Z,437.0000
2022-07-30T11:48:40.786Z,435.0000
2022-07-30T11:49:42.748Z,437.0000
2022-07-30T11:50:45.003Z,446.0000
2022-07-30T11:51:45.119Z,433.0000
2022-07-30T11:52:47.371Z,445.0000
2022-07-30T11:53:49.663Z,445.0000
2022-07-30T11:54:51.826Z,442.0000
2022-07-30T11:55:54.040Z,441.0000
2022-07-30T11:56:59.553Z,438.0000
2022-07-30T11:57:58.532Z,440.0000
2022-07-30T11:59:00.826Z,443.0000
2022-07-30T12:00:03.064Z,440.0000
2022-07-30T12:01:09.334Z,439.0000
2022-07-30T12:02:07.487Z,433.0000
2022-07-30T12:03:07.529Z,435.0000
2022-07-30T12:04:09.755Z,439.0000
2022-07-30T12:05:11.959Z,440.0000
2022-07-30T12:06:14.188Z,446.0000
2022-07-30T12:07:16.430Z,446.0000
2022-07-30T12:08:35.216Z,445.0000
2022-07-30T12:09:20.983Z,443.0000
2022-07-30T12:10:27.054Z,440.0000
2022-07-30T12:11:25.442Z,431.0000
2022-07-30T12:12:27.695Z,431.0000
2022-07-30T12:13:43.584Z,433.0000
2022-07-30T12:14:30.190Z,433.0000